Time;durP1;ratioP1;P1;durP2;ratioP2;P2;SDS_P1;SDS_P2;PMS_P1;PMS_P2;Temp;Humidity;BMP_temperature;BMP_pressure;BME280_temperature;BME280_humidity;BME280_pressure;Samples;Min_cycle;Max_cycle;Signal;HPM_P1;HPM_P2
2022/10/04 00:01:45;;;;;;;;;;;;;;;21.31;56.52;101800.56;7270787;19;152902;-57
2022/10/04 00:04:15;;;;;;;;;;;;;;;21.31;56.28;101800.56;7274300;19;154686;-57
2022/10/04 00:06:48;;;;;;;;;;;;;;;21.30;56.54;101791.28;7278201;19;152629;-57
2022/10/04 00:09:18;;;;;;;;;;;;;;;21.31;56.50;101800.56;7274229;19;152644;-57
2022/10/04 00:11:46;;;;;;;;;;;;;;;21.31;56.44;101794.94;7276112;19;153442;-57
2022/10/04 00:14:18;;;;;;;;;;;;;;;21.32;56.69;101787.34;7276504;19;152413;-57
2022/10/04 00:16:45;;;;;;;;;;;;;;;21.32;56.38;101781.72;7281479;19;152373;-57
2022/10/04 00:19:14;;;;;;;;;;;;;;;21.30;56.73;101782.03;7275731;19;152785;-58
2022/10/04 00:22:09;;;;;;;;;;;;;;;21.31;56.60;101780.88;7278036;19;152815;-58
2022/10/04 00:24:36;;;;;;;;;;;;;;;21.32;56.77;101778.91;7271092;19;153260;-58
2022/10/04 00:27:23;;;;;;;;;;;;;;;21.30;56.48;101768.00;7275721;19;152881;-58
2022/10/04 00:30:09;;;;;;;;;;;;;;;21.30;56.81;101768.81;7276031;19;154913;-58
2022/10/04 00:32:36;;;;;;;;;;;;;;;21.30;56.62;101770.81;7273461;19;153930;-58
2022/10/04 00:35:22;;;;;;;;;;;;;;;21.30;56.97;101770.81;7275485;19;151837;-58
2022/10/04 00:37:56;;;;;;;;;;;;;;;21.32;56.97;101767.69;7276495;19;153920;-58
2022/10/04 00:40:25;;;;;;;;;;;;;;;21.33;56.65;101755.31;7280213;19;153443;-58
2022/10/04 00:42:56;;;;;;;;;;;;;;;21.30;57.11;101756.75;7276790;19;152812;-58
2022/10/04 00:45:26;;;;;;;;;;;;;;;21.31;57.09;101752.78;7270692;19;154118;-57
2022/10/04 00:47:58;;;;;;;;;;;;;;;21.31;56.97;101749.97;7275743;19;152596;-58
2022/10/04 00:50:28;;;;;;;;;;;;;;;21.29;57.11;101747.47;7275713;19;153517;-58
2022/10/04 00:52:56;;;;;;;;;;;;;;;21.29;56.76;101741.00;7274867;19;156038;-56
2022/10/04 00:55:33;;;;;;;;;;;;;;;21.30;56.89;101732.25;7273122;19;152947;-56
2022/10/04 00:58:01;;;;;;;;;;;;;;;21.31;57.26;101727.47;7280760;19;152672;-56
2022/10/04 01:00:32;;;;;;;;;;;;;;;21.29;57.40;101727.78;7275587;19;152691;-57
2022/10/04 01:03:14;;;;;;;;;;;;;;;21.29;57.57;101730.59;7286055;19;153410;-57
2022/10/04 01:05:46;;;;;;;;;;;;;;;21.28;57.54;101723.31;7276960;19;152809;-58
2022/10/04 01:08:16;;;;;;;;;;;;;;;21.30;57.81;101723.81;7283586;19;152517;-57
2022/10/04 01:10:47;;;;;;;;;;;;;;;21.30;57.42;101723.00;7277244;19;153177;-57
2022/10/04 01:13:32;;;;;;;;;;;;;;;21.30;57.92;101721.00;7281684;19;154272;-58
2022/10/04 01:16:10;;;;;;;;;;;;;;;21.30;57.59;101708.97;7280058;19;152652;-57
2022/10/04 01:18:37;;;;;;;;;;;;;;;21.29;57.60;101713.75;7281146;19;153484;-57
2022/10/04 01:21:19;;;;;;;;;;;;;;;21.29;58.08;101710.94;7281268;19;154511;-57
2022/10/04 01:23:50;;;;;;;;;;;;;;;21.30;58.12;101697.72;7281036;19;152691;-57
2022/10/04 01:26:25;;;;;;;;;;;;;;;21.28;57.90;101705.59;7287729;19;153132;-57
2022/10/04 01:28:52;;;;;;;;;;;;;;;21.30;58.13;101701.34;7280934;19;153831;-59
2022/10/04 01:31:26;;;;;;;;;;;;;;;21.29;58.10;101679.16;7281222;19;153874;-57
2022/10/04 01:33:53;;;;;;;;;;;;;;;21.30;57.86;101686.47;7278725;19;153350;-57
2022/10/04 01:36:20;;;;;;;;;;;;;;;21.30;58.09;101684.47;7281350;19;152273;-57
2022/10/04 01:38:47;;;;;;;;;;;;;;;21.30;57.80;101683.66;7281426;19;154610;-57
2022/10/04 01:41:17;;;;;;;;;;;;;;;21.30;58.23;101678.03;7277090;19;154252;-57
2022/10/04 01:43:47;;;;;;;;;;;;;;;21.30;57.99;101673.22;7276867;19;153306;-57
2022/10/04 01:46:19;;;;;;;;;;;;;;;21.30;58.01;101676.03;7284572;19;152484;-60
2022/10/04 01:48:46;;;;;;;;;;;;;;;21.30;57.93;101669.59;7279786;19;152379;-57
2022/10/04 01:51:21;;;;;;;;;;;;;;;21.30;58.17;101661.19;7280805;19;152833;-57
2022/10/04 01:53:55;;;;;;;;;;;;;;;21.29;58.13;101657.53;7280470;19;154419;-57
2022/10/04 01:56:24;;;;;;;;;;;;;;;21.29;58.36;101651.06;7278265;19;152926;-57
2022/10/04 01:58:53;;;;;;;;;;;;;;;21.28;58.62;101655.84;7280140;19;154753;-57
2022/10/04 02:01:30;;;;;;;;;;;;;;;21.28;58.52;101658.66;7278072;19;152272;-57
2022/10/04 02:04:00;;;;;;;;;;;;;;;21.30;58.71;101649.94;7280142;19;152386;-57
2022/10/04 02:06:28;;;;;;;;;;;;;;;21.30;58.73;101652.75;7280153;19;152641;-57
2022/10/04 02:08:56;;;;;;;;;;;;;;;21.28;58.62;101647.41;7284031;19;152288;-56
2022/10/04 02:11:29;;;;;;;;;;;;;;;21.29;58.86;101651.06;7279896;19;154689;-57
2022/10/04 02:13:56;;;;;;;;;;;;;;;21.29;58.84;101643.47;7279231;19;154271;-56
2022/10/04 02:16:25;;;;;;;;;;;;;;;21.27;59.07;101633.63;7279900;19;151993;-57
2022/10/04 02:19:01;;;;;;;;;;;;;;;21.28;59.06;101636.16;7279514;19;152817;-57
2022/10/04 02:21:29;;;;;;;;;;;;;;;21.28;59.18;101632.50;7280543;19;153974;-57
2022/10/04 02:23:56;;;;;;;;;;;;;;;21.27;59.28;101619.59;7280130;19;152839;-56
2022/10/04 02:26:22;;;;;;;;;;;;;;;21.27;59.10;101613.97;7277008;19;153177;-56
2022/10/04 02:28:50;;;;;;;;;;;;;;;21.27;59.39;101603.56;7276682;19;153980;-57
2022/10/04 02:34:04;;;;;;;;;;;;;;;21.26;59.54;101596.25;7278363;19;154106;-57
2022/10/04 02:36:32;;;;;;;;;;;;;;;21.27;59.45;101585.84;7278195;19;152737;-57
2022/10/04 02:39:14;;;;;;;;;;;;;;;21.27;59.67;101586.69;7278970;19;152045;-57
2022/10/04 02:41:50;;;;;;;;;;;;;;;21.26;59.69;101573.78;7271333;19;154238;-57
2022/10/04 02:44:25;;;;;;;;;;;;;;;21.27;59.75;101592.31;7273852;19;153560;-56
2022/10/04 02:47:10;;;;;;;;;;;;;;;21.26;60.14;101582.19;7273691;19;153444;-57
2022/10/04 02:49:41;;;;;;;;;;;;;;;21.26;59.73;101587.81;7271305;19;153401;-57
2022/10/04 02:52:15;;;;;;;;;;;;;;;21.26;60.02;101576.59;7275895;19;153158;-56
2022/10/04 02:54:41;;;;;;;;;;;;;;;21.27;60.29;101577.44;7281006;19;152813;-56
2022/10/04 02:57:14;;;;;;;;;;;;;;;21.26;60.38;101578.56;7276712;19;152731;-56
2022/10/04 02:59:40;;;;;;;;;;;;;;;21.26;60.19;101572.94;7277722;19;152534;-56
2022/10/04 03:02:27;;;;;;;;;;;;;;;21.27;59.98;101577.44;7275133;19;153363;-57
2022/10/04 03:04:59;;;;;;;;;;;;;;;21.26;60.46;101585.00;7276742;19;152642;-56
2022/10/04 03:07:26;;;;;;;;;;;;;;;21.25;60.33;101568.47;7277286;19;152334;-56
2022/10/04 03:09:52;;;;;;;;;;;;;;;21.26;60.56;101576.59;7274192;19;153898;-56
2022/10/04 03:12:21;;;;;;;;;;;;;;;21.26;60.48;101553.25;7277702;19;152207;-57
2022/10/04 03:14:47;;;;;;;;;;;;;;;21.26;60.60;101559.72;7277531;19;152329;-56
2022/10/04 03:17:15;;;;;;;;;;;;;;;21.26;60.68;101561.69;7283952;19;152857;-56
2022/10/04 03:19:42;;;;;;;;;;;;;;;21.25;60.43;101557.22;7276150;19;153715;-56
2022/10/04 03:22:10;;;;;;;;;;;;;;;21.24;60.05;101549.94;7278275;19;152997;-57
2022/10/04 03:24:48;;;;;;;;;;;;;;;21.24;60.38;101556.38;7278541;19;152410;-56
2022/10/04 03:27:24;;;;;;;;;;;;;;;21.23;60.64;101540.66;7277668;19;152814;-58
2022/10/04 03:29:52;;;;;;;;;;;;;;;21.24;60.29;101535.88;7277803;19;154523;-56
2022/10/04 03:32:24;;;;;;;;;;;;;;;21.24;60.46;101536.72;7277631;19;153814;-56
2022/10/04 03:34:54;;;;;;;;;;;;;;;21.24;60.97;101530.25;7277905;19;153853;-58
2022/10/04 03:37:21;;;;;;;;;;;;;;;21.24;60.79;101531.09;7277640;19;153041;-58
2022/10/04 03:39:58;;;;;;;;;;;;;;;21.26;60.50;101523.19;7284363;19;153668;-56
2022/10/04 03:42:41;;;;;;;;;;;;;;;21.23;60.75;101526.59;7277143;19;153619;-56
2022/10/04 03:45:23;;;;;;;;;;;;;;;21.23;60.84;101518.16;7276131;19;151954;-56
2022/10/04 03:47:53;;;;;;;;;;;;;;;21.23;60.68;101517.31;7277408;19;153493;-57
2022/10/04 03:50:33;;;;;;;;;;;;;;;21.22;60.79;101521.28;7275474;19;153314;-57
2022/10/04 03:53:03;;;;;;;;;;;;;;;21.23;61.07;101520.97;7277469;19;153219;-57
2022/10/04 03:55:33;;;;;;;;;;;;;;;21.22;61.03;101518.47;7276644;19;152775;-57
2022/10/04 03:58:01;;;;;;;;;;;;;;;21.22;60.80;101522.09;7276670;19;154408;-57
2022/10/04 04:00:28;;;;;;;;;;;;;;;21.22;61.01;101521.28;7284170;19;152139;-57
2022/10/04 04:02:57;;;;;;;;;;;;;;;21.22;60.71;101533.34;7274785;19;154185;-57
2022/10/04 04:05:30;;;;;;;;;;;;;;;21.22;60.99;101527.72;7275655;19;152500;-57
2022/10/04 04:07:59;;;;;;;;;;;;;;;21.21;60.68;101526.06;7278046;19;155000;-57
2022/10/04 04:10:28;;;;;;;;;;;;;;;21.22;61.18;101522.09;7275066;19;153986;-57
2022/10/04 04:13:10;;;;;;;;;;;;;;;21.21;61.15;101519.63;7277268;19;153756;-56
2022/10/04 04:15:37;;;;;;;;;;;;;;;21.22;61.11;101515.66;7274986;19;153352;-57
2022/10/04 04:18:12;;;;;;;;;;;;;;;21.20;61.12;101499.09;7276312;19;154232;-57
2022/10/04 04:20:40;;;;;;;;;;;;;;;21.21;61.13;101500.75;7275833;19;152842;-57
2022/10/04 04:23:16;;;;;;;;;;;;;;;21.21;60.80;101497.13;7285182;19;153891;-57
2022/10/04 04:25:45;;;;;;;;;;;;;;;21.21;61.13;101497.13;7274597;19;153365;-58
2022/10/04 04:28:31;;;;;;;;;;;;;;;21.20;61.04;101499.09;7279055;19;153656;-57
2022/10/04 04:31:08;;;;;;;;;;;;;;;21.20;61.40;101499.09;7278770;19;153966;-56
2022/10/04 04:33:41;;;;;;;;;;;;;;;21.20;61.45;101501.91;7282928;19;153906;-56
2022/10/04 04:36:11;;;;;;;;;;;;;;;21.19;61.47;101508.66;7282112;19;153484;-56
2022/10/04 04:41:33;;;;;;;;;;;;;;;21.20;61.39;101512.31;7280778;19;152020;-56
2022/10/04 04:44:01;;;;;;;;;;;;;;;21.19;61.57;101516.25;7282388;19;152858;-56
2022/10/04 04:46:28;;;;;;;;;;;;;;;21.19;60.94;101521.88;7288522;19;154366;-56
2022/10/04 04:49:05;;;;;;;;;;;;;;;21.18;61.05;101515.41;7282407;19;153899;-56
2022/10/04 04:51:32;;;;;;;;;;;;;;;21.20;61.48;101517.94;7280865;19;155214;-56
2022/10/04 04:54:01;;;;;;;;;;;;;;;21.17;61.19;101516.53;7282622;19;152247;-56
2022/10/04 04:56:29;;;;;;;;;;;;;;;21.17;61.15;101512.91;7281631;19;153642;-56
2022/10/04 04:58:58;;;;;;;;;;;;;;;21.17;60.97;101512.91;7281305;19;153869;-56
2022/10/04 05:01:44;;;;;;;;;;;;;;;21.16;61.36;101511.25;7281516;19;152695;-56
2022/10/04 05:04:11;;;;;;;;;;;;;;;21.16;61.13;101511.25;7281133;19;153522;-56
2022/10/04 05:06:42;;;;;;;;;;;;;;;21.15;61.29;101510.41;7280044;19;154060;-56
2022/10/04 05:09:20;;;;;;;;;;;;;;;21.15;61.20;101506.75;7288111;19;152366;-57
2022/10/04 05:11:48;;;;;;;;;;;;;;;21.14;61.24;101496.66;7281258;19;153756;-56
2022/10/04 05:14:16;;;;;;;;;;;;;;;21.13;61.18;101501.44;7281370;19;151731;-56
2022/10/04 05:16:43;;;;;;;;;;;;;;;21.15;61.14;101501.13;7282040;19;153116;-56
2022/10/04 05:19:15;;;;;;;;;;;;;;;21.13;61.09;101489.34;7277812;19;154283;-56
2022/10/04 05:21:43;;;;;;;;;;;;;;;21.12;61.56;101484.84;7282878;19;152000;-56
2022/10/04 05:24:12;;;;;;;;;;;;;;;21.12;61.39;101496.09;7281065;19;153700;-56
2022/10/04 05:26:40;;;;;;;;;;;;;;;21.12;61.62;101496.91;7276304;19;154115;-56
2022/10/04 05:29:14;;;;;;;;;;;;;;;21.12;61.57;101490.47;7280767;19;153248;-56
2022/10/04 05:31:46;;;;;;;;;;;;;;;21.11;61.48;101491.59;7285832;19;153648;-56
2022/10/04 05:34:36;;;;;;;;;;;;;;;21.11;61.51;101492.44;7280146;19;151697;-56
2022/10/04 05:37:08;;;;;;;;;;;;;;;21.11;61.16;101491.59;7281547;19;153528;-56
2022/10/04 05:39:41;;;;;;;;;;;;;;;21.11;61.55;101488.78;7279835;19;154025;-56
2022/10/04 05:42:16;;;;;;;;;;;;;;;21.09;61.38;101486.28;7276033;19;153880;-57
2022/10/04 05:44:50;;;;;;;;;;;;;;;21.09;61.79;101491.88;7280343;19;153686;-57
2022/10/04 05:47:22;;;;;;;;;;;;;;;21.09;61.29;101491.88;7277277;19;153351;-56
2022/10/04 05:49:51;;;;;;;;;;;;;;;21.08;61.53;101487.41;7278489;19;155304;-57
2022/10/04 05:52:26;;;;;;;;;;;;;;;21.08;61.76;101492.19;7281122;19;153710;-57
2022/10/04 05:55:18;;;;;;;;;;;;;;;21.08;61.62;101497.78;7286351;19;151745;-57
2022/10/04 05:57:44;;;;;;;;;;;;;;;21.08;61.89;101492.19;7281427;19;153498;-57
2022/10/04 06:00:16;;;;;;;;;;;;;;;21.07;61.94;101490.53;7279770;19;157030;-56
2022/10/04 06:02:49;;;;;;;;;;;;;;;21.08;61.46;101497.78;7277490;19;153668;-57
2022/10/04 06:05:37;;;;;;;;;;;;;;;21.07;61.97;101496.16;7280785;19;153393;-57
2022/10/04 06:08:22;;;;;;;;;;;;;;;21.07;61.48;101493.34;7279263;19;155589;-57
2022/10/04 06:10:56;;;;;;;;;;;;;;;21.06;61.69;101489.69;7275562;19;152080;-57
2022/10/04 06:13:43;;;;;;;;;;;;;;;21.06;61.89;101494.47;7281359;19;155154;-57
2022/10/04 06:16:22;;;;;;;;;;;;;;;21.05;61.77;101502.06;7285772;19;154465;-56
2022/10/04 06:19:07;;;;;;;;;;;;;;;21.05;61.99;101504.03;7277199;19;154199;-57
2022/10/04 06:21:39;;;;;;;;;;;;;;;21.05;62.10;101504.88;7280172;19;153451;-57
2022/10/04 06:24:22;;;;;;;;;;;;;;;21.06;62.07;101509.34;7278328;19;152768;-57
2022/10/04 06:26:58;;;;;;;;;;;;;;;21.05;61.83;101510.47;7279003;19;152826;-57
2022/10/04 06:29:27;;;;;;;;;;;;;;;21.05;61.73;101506.84;7278208;19;154227;-59
2022/10/04 06:31:53;;;;;;;;;;;;;;;21.04;61.79;101506.00;7280266;19;152524;-57
2022/10/04 06:34:31;;;;;;;;;;;;;;;21.03;61.80;101501.50;7278690;19;153528;-57
2022/10/04 06:37:08;;;;;;;;;;;;;;;21.04;61.43;101502.34;7278625;19;152325;-57
2022/10/04 06:39:48;;;;;;;;;;;;;;;21.03;61.40;101506.31;7287888;19;152562;-57
2022/10/04 06:42:23;;;;;;;;;;;;;;;20.97;60.50;101507.50;7275961;19;153454;-56
2022/10/04 06:45:04;;;;;;;;;;;;;;;20.91;60.96;101503.91;7279854;19;152313;-57
2022/10/04 06:47:59;;;;;;;;;;;;;;;20.95;60.55;101504.97;7275447;19;153060;-57
2022/10/04 06:50:27;;;;;;;;;;;;;;;21.02;60.13;101504.63;7277161;19;155225;-57
2022/10/04 06:53:02;;;;;;;;;;;;;;;21.08;60.58;101515.50;7278684;19;151898;-57
2022/10/04 06:55:29;;;;;;;;;;;;;;;21.11;60.40;101502.84;7278424;19;153509;-57
2022/10/04 06:58:16;;;;;;;;;;;;;;;21.15;60.22;101501.13;7278508;19;154315;-57
2022/10/04 07:00:49;;;;;;;;;;;;;;;21.20;60.43;101501.06;7275960;19;153687;-57
2022/10/04 07:03:22;;;;;;;;;;;;;;;21.26;60.00;101494.25;7285362;19;153521;-58
2022/10/04 07:05:59;;;;;;;;;;;;;;;21.29;60.17;101494.50;7278556;19;152681;-58
2022/10/04 07:08:35;;;;;;;;;;;;;;;21.34;59.90;101501.19;7279768;19;152822;-57
2022/10/04 07:11:22;;;;;;;;;;;;;;;21.38;59.85;101493.81;7277296;19;153902;-57
2022/10/04 07:13:55;;;;;;;;;;;;;;;21.41;59.89;101498.84;7276137;19;152836;-57
2022/10/04 07:16:24;;;;;;;;;;;;;;;21.45;59.26;101497.09;7278317;19;153065;-56
2022/10/04 07:19:12;;;;;;;;;;;;;;;21.49;59.50;101500.97;7274499;19;152470;-57
2022/10/04 07:21:41;;;;;;;;;;;;;;;21.58;59.68;101494.38;7279801;19;153314;-57
2022/10/04 07:24:18;;;;;;;;;;;;;;;21.59;59.24;101479.19;7278032;19;154130;-56
2022/10/04 07:26:47;;;;;;;;;;;;;;;21.68;59.24;101485.81;7281524;19;153335;-57
2022/10/04 07:29:20;;;;;;;;;;;;;;;21.70;59.50;101491.13;7277632;19;153033;-57
2022/10/04 07:32:10;;;;;;;;;;;;;;;21.69;58.79;101497.88;7276693;19;154242;-57
2022/10/04 07:34:52;;;;;;;;;;;;;;;21.71;58.43;101498.44;7276975;19;152764;-57
2022/10/04 07:37:20;;;;;;;;;;;;;;;21.73;58.60;101504.56;7276755;19;152504;-57
2022/10/04 07:40:02;;;;;;;;;;;;;;;21.74;58.10;101511.88;7275007;19;153794;-57
2022/10/04 07:42:46;;;;;;;;;;;;;;;21.76;57.94;101508.78;7272052;19;152290;-58
2022/10/04 07:45:22;;;;;;;;;;;;;;;21.77;58.16;101516.91;7277169;19;153786;-57
2022/10/04 07:48:13;;;;;;;;;;;;;;;21.78;57.78;101512.94;7272972;19;154333;-58
2022/10/04 07:51:00;;;;;;;;;;;;;;;21.79;57.75;101517.44;7284525;19;153386;-57
2022/10/04 07:53:31;;;;;;;;;;;;;;;21.79;57.26;101513.78;7276661;19;154594;-57
2022/10/04 07:56:21;;;;;;;;;;;;;;;21.80;57.62;101510.69;7276180;19;156668;-57
2022/10/04 07:58:56;;;;;;;;;;;;;;;21.85;57.21;101513.41;7276971;19;153661;-57
2022/10/04 08:01:31;;;;;;;;;;;;;;;21.87;56.93;101525.19;7276170;19;153436;-58
2022/10/04 08:04:27;;;;;;;;;;;;;;;21.88;57.14;101526.03;7275724;19;151945;-57
2022/10/04 08:06:58;;;;;;;;;;;;;;;21.89;56.63;101534.19;7288090;19;153976;-57
2022/10/04 08:09:25;;;;;;;;;;;;;;;21.93;56.67;101532.47;7289902;19;153971;-58
2022/10/04 08:12:11;;;;;;;;;;;;;;;21.95;57.17;101534.94;7297813;19;152557;-57
2022/10/04 08:14:49;;;;;;;;;;;;;;;21.93;57.42;101523.19;7289835;19;154189;-58
2022/10/04 08:17:25;;;;;;;;;;;;;;;21.94;57.35;101516.41;7290167;19;152084;-57
2022/10/04 08:19:54;;;;;;;;;;;;;;;21.93;57.18;101512.78;7291049;19;153900;-57
2022/10/04 08:22:33;;;;;;;;;;;;;;;21.96;56.83;101502.88;7290042;19;153692;-58
2022/10/04 08:25:04;;;;;;;;;;;;;;;21.95;56.77;101495.56;7292163;19;152023;-57
2022/10/04 08:27:38;;;;;;;;;;;;;;;21.95;56.84;101496.41;7288479;19;154615;-58
2022/10/04 08:30:05;;;;;;;;;;;;;;;21.96;56.65;101497.25;7289144;19;152824;-57
2022/10/04 08:33:00;;;;;;;;;;;;;;;21.96;56.69;101492.44;7289311;19;152830;-57
2022/10/04 08:35:38;;;;;;;;;;;;;;;21.96;56.95;101486.81;7294277;19;153572;-58
2022/10/04 08:38:26;;;;;;;;;;;;;;;21.95;56.82;101487.97;7291785;19;152327;-57
2022/10/04 08:41:12;;;;;;;;;;;;;;;21.96;56.51;101480.34;7288441;19;155249;-57
2022/10/04 08:44:01;;;;;;;;;;;;;;;21.95;56.49;101484.31;7288189;19;154579;-57
2022/10/04 08:46:34;;;;;;;;;;;;;;;21.96;56.87;101497.25;7290214;19;151947;-57
2022/10/04 08:49:20;;;;;;;;;;;;;;;21.93;56.61;101486.59;7289862;19;153812;-57
2022/10/04 08:52:16;;;;;;;;;;;;;;;21.93;56.59;101492.22;7288429;19;154210;-57
2022/10/04 08:54:57;;;;;;;;;;;;;;;21.92;56.45;101491.38;7285724;19;152268;-57
2022/10/04 08:57:30;;;;;;;;;;;;;;;21.91;56.22;101489.69;7289273;19;153268;-57
2022/10/04 09:00:06;;;;;;;;;;;;;;;21.92;56.01;101493.34;7296111;19;153467;-57
2022/10/04 09:02:51;;;;;;;;;;;;;;;21.91;56.03;101494.47;7288378;19;153420;-57
2022/10/04 09:05:21;;;;;;;;;;;;;;;21.90;56.30;101495.59;7287324;19;154006;-57
2022/10/04 09:08:06;;;;;;;;;;;;;;;21.89;55.96;101489.16;7288575;19;152212;-57
2022/10/04 09:10:43;;;;;;;;;;;;;;;21.90;55.93;101492.78;7285734;19;152750;-57
2022/10/04 09:13:29;;;;;;;;;;;;;;;21.89;55.85;101488.31;7286315;19;153923;-57
2022/10/04 09:16:04;;;;;;;;;;;;;;;21.87;55.85;101483.00;7286981;19;152719;-57
2022/10/04 09:18:37;;;;;;;;;;;;;;;21.87;56.12;101482.16;7281777;19;152988;-57
2022/10/04 09:21:13;;;;;;;;;;;;;;;21.85;56.37;101476.81;7281973;19;153477;-57
2022/10/04 09:23:52;;;;;;;;;;;;;;;21.84;55.99;101492.06;7288736;19;151990;-58
2022/10/04 09:26:19;;;;;;;;;;;;;;;21.84;55.88;101482.78;7280819;19;153384;-58
2022/10/04 09:28:52;;;;;;;;;;;;;;;21.83;55.94;101496.00;7279666;19;153204;-58
2022/10/04 09:31:40;;;;;;;;;;;;;;;21.83;55.99;101495.16;7280550;19;152187;-58
2022/10/04 09:34:12;;;;;;;;;;;;;;;21.83;56.12;101495.16;7280000;19;153588;-58
2022/10/04 09:37:00;;;;;;;;;;;;;;;21.83;56.06;101497.97;7281622;19;152378;-58
2022/10/04 09:39:30;;;;;;;;;;;;;;;21.81;55.75;101508.69;7280593;19;153167;-58
2022/10/04 09:42:05;;;;;;;;;;;;;;;21.80;55.99;101510.69;7278082;19;152912;-58
2022/10/04 09:44:47;;;;;;;;;;;;;;;21.79;56.04;101502.53;7278978;19;152622;-58
2022/10/04 09:47:20;;;;;;;;;;;;;;;21.77;55.64;101508.47;7284962;19;154076;-58
2022/10/04 09:49:50;;;;;;;;;;;;;;;21.76;56.05;101520.03;7280887;19;152139;-58
2022/10/04 09:52:19;;;;;;;;;;;;;;;21.75;55.74;101516.38;7282073;19;152999;-58
2022/10/04 09:55:03;;;;;;;;;;;;;;;21.74;55.85;101503.44;7278457;19;153371;-58
2022/10/04 09:57:57;;;;;;;;;;;;;;;21.73;55.97;101502.59;7280600;19;152859;-58
2022/10/04 10:00:38;;;;;;;;;;;;;;;21.71;55.70;101492.81;7280716;19;153889;-58
2022/10/04 10:03:20;;;;;;;;;;;;;;;21.69;55.72;101481.84;7279573;19;152255;-58
2022/10/04 10:05:47;;;;;;;;;;;;;;;21.68;56.13;101474.56;7279597;19;151783;-58
2022/10/04 10:08:25;;;;;;;;;;;;;;;21.67;56.14;101478.50;7280098;19;155440;-57
2022/10/04 10:14:06;;;;;;;;;;;;;;;21.65;56.18;101494.84;7278828;19;153528;-59
2022/10/04 10:16:52;;;;;;;;;;;;;;;21.65;55.76;101499.63;7278252;19;152740;-59
2022/10/04 10:19:30;;;;;;;;;;;;;;;21.64;55.91;101493.19;7277674;19;152382;-59
2022/10/04 10:22:16;;;;;;;;;;;;;;;21.62;55.62;101489.81;7279807;19;152748;-59
2022/10/04 10:25:05;;;;;;;;;;;;;;;21.62;56.20;101498.25;7278725;19;155658;-59
2022/10/04 10:27:51;;;;;;;;;;;;;;;21.62;55.92;101472.13;7279115;19;152839;-59
2022/10/04 10:30:21;;;;;;;;;;;;;;;21.60;55.66;101461.19;7279034;19;154355;-56
2022/10/04 10:32:53;;;;;;;;;;;;;;;21.61;55.88;101464.81;7286205;19;153447;-59
2022/10/04 10:35:39;;;;;;;;;;;;;;;21.61;55.93;101473.25;7278834;19;153363;-59
2022/10/04 10:38:22;;;;;;;;;;;;;;;21.60;55.70;101471.59;7279439;19;153759;-59
2022/10/04 10:40:49;;;;;;;;;;;;;;;21.60;55.78;101460.34;7277901;19;152840;-59
2022/10/04 10:43:24;;;;;;;;;;;;;;;21.60;55.66;101458.38;7280961;19;153339;-59
2022/10/04 10:45:54;;;;;;;;;;;;;;;21.58;56.12;101460.63;7276457;19;154257;-59
2022/10/04 10:48:20;;;;;;;;;;;;;;;21.56;55.80;101454.50;7278098;19;153515;-59
2022/10/04 10:51:00;;;;;;;;;;;;;;;21.55;56.13;101464.06;7279265;19;152818;-59
2022/10/04 10:53:35;;;;;;;;;;;;;;;21.55;55.78;101471.66;7279171;19;153341;-59
2022/10/04 10:56:21;;;;;;;;;;;;;;;21.54;55.84;101470.81;7286065;19;152145;-58
2022/10/04 10:59:11;;;;;;;;;;;;;;;21.53;55.96;101469.13;7277830;19;154235;-59
2022/10/04 11:02:03;;;;;;;;;;;;;;;21.50;56.25;101475.38;7278237;19;152438;-59
2022/10/04 11:04:41;;;;;;;;;;;;;;;21.50;55.83;101469.75;7279700;19;153706;-59
2022/10/04 11:07:25;;;;;;;;;;;;;;;21.48;56.13;101472.03;7278981;19;153292;-59
2022/10/04 11:10:04;;;;;;;;;;;;;;;21.48;55.94;101476.81;7276652;19;152786;-59
2022/10/04 11:12:54;;;;;;;;;;;;;;;21.47;56.11;101484.41;7278203;19;154020;-59
2022/10/04 11:15:39;;;;;;;;;;;;;;;21.45;55.92;101478.25;7276451;19;154966;-59
2022/10/04 11:18:24;;;;;;;;;;;;;;;21.44;56.00;101473.75;7279192;19;153844;-59
2022/10/04 11:21:06;;;;;;;;;;;;;;;21.43;56.16;101466.50;7281994;19;152867;-59
2022/10/04 11:23:50;;;;;;;;;;;;;;;21.42;55.95;101467.63;7279287;19;154362;-59
2022/10/04 11:26:26;;;;;;;;;;;;;;;21.43;56.03;101451.59;7277990;19;152804;-59
2022/10/04 11:29:14;;;;;;;;;;;;;;;21.43;56.18;101448.78;7273068;19;153369;-59
2022/10/04 11:32:01;;;;;;;;;;;;;;;21.42;56.01;101445.13;7278512;19;152100;-59
2022/10/04 11:34:40;;;;;;;;;;;;;;;21.41;56.06;101435.00;7277515;19;152606;-59
2022/10/04 11:37:11;;;;;;;;;;;;;;;21.41;56.44;101435.00;7277523;19;155101;-59
2022/10/04 11:39:40;;;;;;;;;;;;;;;21.42;56.13;101435.84;7274110;19;152067;-59
2022/10/04 11:42:27;;;;;;;;;;;;;;;21.41;56.27;101428.56;7276183;19;153588;-59
2022/10/04 11:45:06;;;;;;;;;;;;;;;21.41;56.05;101420.97;7284282;19;154297;-59
2022/10/04 11:47:36;;;;;;;;;;;;;;;21.45;56.07;101424.84;7276751;19;153555;-59
2022/10/04 11:50:02;;;;;;;;;;;;;;;21.44;56.07;101409.09;7276980;19;153709;-58
2022/10/04 11:52:29;;;;;;;;;;;;;;;21.44;56.07;101411.91;7278176;19;151820;-59
2022/10/04 11:54:58;;;;;;;;;;;;;;;21.45;56.08;101418.38;7276658;19;152881;-57
2022/10/04 11:57:44;;;;;;;;;;;;;;;21.44;56.44;101436.41;7274402;19;154313;-59
2022/10/04 12:00:39;;;;;;;;;;;;;;;21.43;56.08;101420.66;7276930;19;152998;-59
2022/10/04 12:03:26;;;;;;;;;;;;;;;21.42;56.37;101421.81;7277260;19;153124;-59
2022/10/04 12:06:13;;;;;;;;;;;;;;;21.41;56.48;101422.94;7275463;19;155552;-59
2022/10/04 12:08:43;;;;;;;;;;;;;;;21.40;56.56;101422.09;7284189;19;152378;-59
2022/10/04 12:12:35;;;;;;;;;;;;;;;21.39;56.57;101433.66;7273860;19;153397;-59
2022/10/04 12:14:34;;;;;;;;;;;;;;;21.36;56.42;101432.28;7275796;19;152597;-58
2022/10/04 12:17:19;;;;;;;;;;;;;;;21.35;56.21;101436.22;7276128;19;154162;-59
2022/10/04 12:20:05;;;;;;;;;;;;;;;21.35;56.38;101444.66;7273071;19;153287;-59
2022/10/04 12:22:59;;;;;;;;;;;;;;;21.35;56.30;101441.03;7276373;19;151972;-59
2022/10/04 12:25:31;;;;;;;;;;;;;;;21.35;56.49;101435.41;7275721;19;153092;-59
2022/10/04 12:28:17;;;;;;;;;;;;;;;21.33;56.32;101424.47;7276389;19;154291;-59
2022/10/04 12:31:06;;;;;;;;;;;;;;;21.33;56.18;101429.25;7275077;19;152503;-59
2022/10/04 12:33:38;;;;;;;;;;;;;;;21.31;56.63;101418.28;7281168;19;153310;-58
2022/10/04 12:36:13;;;;;;;;;;;;;;;21.30;56.59;101427.88;7277278;19;153996;-59
2022/10/04 12:38:40;;;;;;;;;;;;;;;21.31;56.44;101429.53;7276146;19;153504;-59
2022/10/04 12:41:10;;;;;;;;;;;;;;;21.29;56.65;101429.00;7273403;19;153380;-59
2022/10/04 12:43:56;;;;;;;;;;;;;;;21.29;56.73;101423.38;7276124;19;152639;-59
2022/10/04 12:46:28;;;;;;;;;;;;;;;21.28;56.29;101416.09;7276531;19;155290;-59
2022/10/04 12:49:13;;;;;;;;;;;;;;;21.27;56.61;101418.06;7252872;19;154753;-59
2022/10/04 12:51:50;;;;;;;;;;;;;;;21.26;56.79;101423.97;7274011;19;151879;-58
2022/10/04 12:54:19;;;;;;;;;;;;;;;21.26;56.46;101427.63;7281840;19;155444;-57
2022/10/04 12:56:46;;;;;;;;;;;;;;;21.26;56.73;101422.00;7281580;19;152898;-57
2022/10/04 12:59:32;;;;;;;;;;;;;;;21.24;56.39;101421.47;7281611;19;152721;-58
2022/10/04 13:02:05;;;;;;;;;;;;;;;21.24;56.78;101420.66;7279617;19;154201;-59
2022/10/04 13:04:35;;;;;;;;;;;;;;;21.23;56.33;101422.63;7280508;19;152270;-59
2022/10/04 13:07:01;;;;;;;;;;;;;;;21.23;56.46;101428.25;7280627;19;156824;-59
2022/10/04 13:09:35;;;;;;;;;;;;;;;21.22;56.83;101428.53;7279327;19;154367;-59
2022/10/04 13:12:34;;;;;;;;;;;;;;;21.22;56.66;101414.47;7281982;19;152983;-58
2022/10/04 13:15:19;;;;;;;;;;;;;;;21.20;56.84;101400.75;7279176;19;153176;-59
2022/10/04 13:17:49;;;;;;;;;;;;;;;21.20;56.51;101399.91;7286308;19;152420;-59
2022/10/04 13:20:34;;;;;;;;;;;;;;;21.21;56.59;101395.97;7280902;19;153035;-58